sensor_id;sensor_type;location;lat;lon;timestamp;pressure;altitude;pressure_sealevel;temperature;humidity
84049;BME280;74136;51.684;7.862;2024-03-17T00:01:38;101708.31;;;3.01;89.22
84049;BME280;74136;51.684;7.862;2024-03-17T00:04:07;101712.97;;;3.08;89.51
84049;BME280;74136;51.684;7.862;2024-03-17T00:06:33;101711.59;;;3.12;89.01
84049;BME280;74136;51.684;7.862;2024-03-17T00:09:00;101708.38;;;3.09;88.32
84049;BME280;74136;51.684;7.862;2024-03-17T00:11:32;101710.56;;;3.05;88.69
84049;BME280;74136;51.684;7.862;2024-03-17T00:14:02;101705.75;;;2.99;88.63
84049;BME280;74136;51.684;7.862;2024-03-17T00:16:28;101706.72;;;2.90;88.50
84049;BME280;74136;51.684;7.862;2024-03-17T00:18:54;101697.69;;;2.89;89.21
84049;BME280;74136;51.684;7.862;2024-03-17T00:21:22;101702.38;;;2.79;89.06
84049;BME280;74136;51.684;7.862;2024-03-17T00:23:49;101704.75;;;2.74;88.85
84049;BME280;74136;51.684;7.862;2024-03-17T00:26:16;101713.38;;;2.70;89.51
84049;BME280;74136;51.684;7.862;2024-03-17T00:28:42;101710.28;;;2.65;89.69
84049;BME280;74136;51.684;7.862;2024-03-17T00:31:12;101711.75;;;2.59;89.26
84049;BME280;74136;51.684;7.862;2024-03-17T00:33:41;101708.81;;;2.52;89.99
84049;BME280;74136;51.684;7.862;2024-03-17T00:36:07;101705.16;;;2.44;89.71
84049;BME280;74136;51.684;7.862;2024-03-17T00:38:33;101706.66;;;2.38;90.22
84049;BME280;74136;51.684;7.862;2024-03-17T00:41:02;101698.28;;;2.32;90.22
84049;BME280;74136;51.684;7.862;2024-03-17T00:43:29;101695.16;;;2.27;90.16
84049;BME280;74136;51.684;7.862;2024-03-17T00:45:55;101697.66;;;2.20;90.39
84049;BME280;74136;51.684;7.862;2024-03-17T00:48:25;101693.53;;;2.16;90.52
84049;BME280;74136;51.684;7.862;2024-03-17T00:50:55;101680.19;;;2.23;92.34
84049;BME280;74136;51.684;7.862;2024-03-17T00:53:22;101688.44;;;2.31;93.05
84049;BME280;74136;51.684;7.862;2024-03-17T00:55:52;101684.16;;;2.28;92.77
84049;BME280;74136;51.684;7.862;2024-03-17T00:58:21;101684.75;;;2.22;92.12
84049;BME280;74136;51.684;7.862;2024-03-17T01:00:48;101684.38;;;2.17;92.12
84049;BME280;74136;51.684;7.862;2024-03-17T01:03:15;101681.28;;;2.12;92.16
84049;BME280;74136;51.684;7.862;2024-03-17T01:05:41;101671.59;;;2.09;93.04
84049;BME280;74136;51.684;7.862;2024-03-17T01:08:09;101674.69;;;2.14;93.71
84049;BME280;74136;51.684;7.862;2024-03-17T01:10:41;101675.09;;;2.19;94.02
84049;BME280;74136;51.684;7.862;2024-03-17T01:13:08;101676.00;;;2.28;94.38
84049;BME280;74136;51.684;7.862;2024-03-17T01:15:35;101669.88;;;2.26;94.20
84049;BME280;74136;51.684;7.862;2024-03-17T01:18:04;101670.19;;;2.23;93.48
84049;BME280;74136;51.684;7.862;2024-03-17T01:20:31;101666.38;;;2.16;93.30
84049;BME280;74136;51.684;7.862;2024-03-17T01:22:57;101671.28;;;2.12;93.21
84049;BME280;74136;51.684;7.862;2024-03-17T01:25:24;101662.03;;;2.05;93.71
84049;BME280;74136;51.684;7.862;2024-03-17T01:27:52;101658.94;;;2.00;93.09
84049;BME280;74136;51.684;7.862;2024-03-17T01:30:18;101663.69;;;1.98;93.85
84049;BME280;74136;51.684;7.862;2024-03-17T01:32:48;101667.56;;;1.96;93.81
84049;BME280;74136;51.684;7.862;2024-03-17T01:35:15;101661.88;;;1.89;94.21
84049;BME280;74136;51.684;7.862;2024-03-17T01:37:41;101662.50;;;1.83;93.46
84049;BME280;74136;51.684;7.862;2024-03-17T01:40:08;101660.09;;;1.80;93.09
84049;BME280;74136;51.684;7.862;2024-03-17T01:42:41;101653.28;;;1.76;92.94
84049;BME280;74136;51.684;7.862;2024-03-17T01:47:43;101655.34;;;1.64;93.80
84049;BME280;74136;51.684;7.862;2024-03-17T01:50:10;101647.09;;;1.56;93.82
84049;BME280;74136;51.684;7.862;2024-03-17T01:52:38;101637.03;;;1.49;93.69
84049;BME280;74136;51.684;7.862;2024-03-17T01:55:05;101639.66;;;1.40;93.55
84049;BME280;74136;51.684;7.862;2024-03-17T01:57:32;101643.66;;;1.36;94.49
84049;BME280;74136;51.684;7.862;2024-03-17T01:59:59;101643.88;;;1.25;94.04
84049;BME280;74136;51.684;7.862;2024-03-17T02:02:26;101643.47;;;1.20;93.87
84049;BME280;74136;51.684;7.862;2024-03-17T02:04:52;101641.34;;;1.14;94.00
84049;BME280;74136;51.684;7.862;2024-03-17T02:07:18;101643.66;;;1.09;94.04
84049;BME280;74136;51.684;7.862;2024-03-17T02:09:45;101643.41;;;1.02;94.01
84049;BME280;74136;51.684;7.862;2024-03-17T02:12:11;101641.44;;;0.95;93.45
84049;BME280;74136;51.684;7.862;2024-03-17T02:14:38;101644.59;;;0.90;94.84
84049;BME280;74136;51.684;7.862;2024-03-17T02:17:04;101643.19;;;0.86;95.71
84049;BME280;74136;51.684;7.862;2024-03-17T02:19:30;101645.91;;;0.86;95.37
84049;BME280;74136;51.684;7.862;2024-03-17T02:21:57;101632.78;;;0.82;95.86
84049;BME280;74136;51.684;7.862;2024-03-17T02:24:23;101635.50;;;0.82;95.82
84049;BME280;74136;51.684;7.862;2024-03-17T02:26:49;101634.34;;;0.84;96.25
84049;BME280;74136;51.684;7.862;2024-03-17T02:29:16;101634.34;;;0.84;96.09
84049;BME280;74136;51.684;7.862;2024-03-17T02:31:42;101631.50;;;0.86;96.58
84049;BME280;74136;51.684;7.862;2024-03-17T02:34:08;101632.34;;;0.86;96.98
84049;BME280;74136;51.684;7.862;2024-03-17T02:36:34;101632.94;;;0.80;96.78
84049;BME280;74136;51.684;7.862;2024-03-17T02:39:00;101632.06;;;0.80;96.11
84049;BME280;74136;51.684;7.862;2024-03-17T02:41:45;101629.25;;;0.71;95.88
84049;BME280;74136;51.684;7.862;2024-03-17T02:44:11;101641.56;;;0.66;96.10
84049;BME280;74136;51.684;7.862;2024-03-17T02:46:38;101620.59;;;0.58;95.44
84049;BME280;74136;51.684;7.862;2024-03-17T02:49:04;101624.16;;;0.59;95.88
84049;BME280;74136;51.684;7.862;2024-03-17T02:51:31;101626.28;;;0.55;95.70
84049;BME280;74136;51.684;7.862;2024-03-17T02:53:57;101625.63;;;0.53;95.82
84049;BME280;74136;51.684;7.862;2024-03-17T02:56:25;101627.31;;;0.54;95.87
84049;BME280;74136;51.684;7.862;2024-03-17T02:58:51;101628.44;;;0.61;96.02
84049;BME280;74136;51.684;7.862;2024-03-17T03:01:18;101622.03;;;0.62;96.40
84049;BME280;74136;51.684;7.862;2024-03-17T03:03:45;101627.88;;;0.58;96.11
84049;BME280;74136;51.684;7.862;2024-03-17T03:06:11;101625.03;;;0.50;95.95
84049;BME280;74136;51.684;7.862;2024-03-17T03:08:39;101625.63;;;0.44;95.90
84049;BME280;74136;51.684;7.862;2024-03-17T03:11:08;101633.75;;;0.34;96.12
84049;BME280;74136;51.684;7.862;2024-03-17T03:13:38;101618.38;;;0.25;96.22
84049;BME280;74136;51.684;7.862;2024-03-17T03:16:09;101622.06;;;0.33;96.06
84049;BME280;74136;51.684;7.862;2024-03-17T03:18:36;101623.63;;;0.36;96.48
84049;BME280;74136;51.684;7.862;2024-03-17T03:21:03;101620.94;;;0.36;96.23
84049;BME280;74136;51.684;7.862;2024-03-17T03:23:30;101628.34;;;0.34;96.21
84049;BME280;74136;51.684;7.862;2024-03-17T03:25:57;101633.34;;;0.29;96.20
84049;BME280;74136;51.684;7.862;2024-03-17T03:28:25;101630.94;;;0.26;96.19
84049;BME280;74136;51.684;7.862;2024-03-17T03:30:52;101628.06;;;0.27;96.23
84049;BME280;74136;51.684;7.862;2024-03-17T03:33:19;101629.66;;;0.30;96.50
84049;BME280;74136;51.684;7.862;2024-03-17T03:35:46;101625.09;;;0.30;96.50
84049;BME280;74136;51.684;7.862;2024-03-17T03:38:14;101628.22;;;0.26;96.40
84049;BME280;74136;51.684;7.862;2024-03-17T03:40:43;101625.22;;;0.29;96.88
84049;BME280;74136;51.684;7.862;2024-03-17T03:43:10;101631.03;;;0.34;96.52
84049;BME280;74136;51.684;7.862;2024-03-17T03:45:37;101618.53;;;0.33;96.98
84049;BME280;74136;51.684;7.862;2024-03-17T03:48:04;101623.22;;;0.41;97.77
84049;BME280;74136;51.684;7.862;2024-03-17T03:50:30;101619.66;;;0.40;98.02
84049;BME280;74136;51.684;7.862;2024-03-17T03:52:57;101612.81;;;0.36;97.86
84049;BME280;74136;51.684;7.862;2024-03-17T03:55:23;101609.25;;;0.35;98.10
84049;BME280;74136;51.684;7.862;2024-03-17T03:57:50;101617.94;;;0.39;98.29
84049;BME280;74136;51.684;7.862;2024-03-17T04:00:19;101614.53;;;0.37;98.49
84049;BME280;74136;51.684;7.862;2024-03-17T04:02:49;101610.53;;;0.41;98.14
84049;BME280;74136;51.684;7.862;2024-03-17T04:05:16;101617.66;;;0.42;97.97
84049;BME280;74136;51.684;7.862;2024-03-17T04:07:43;101614.09;;;0.42;98.54
84049;BME280;74136;51.684;7.862;2024-03-17T04:10:12;101612.09;;;0.44;98.29
84049;BME280;74136;51.684;7.862;2024-03-17T04:12:39;101618.50;;;0.43;98.04
84049;BME280;74136;51.684;7.862;2024-03-17T04:15:06;101618.38;;;0.44;98.09
84049;BME280;74136;51.684;7.862;2024-03-17T04:17:33;101617.78;;;0.50;98.25
84049;BME280;74136;51.684;7.862;2024-03-17T04:19:59;101617.03;;;0.58;98.20
84049;BME280;74136;51.684;7.862;2024-03-17T04:22:26;101614.03;;;0.61;98.25
84049;BME280;74136;51.684;7.862;2024-03-17T04:24:53;101609.19;;;0.64;98.44
84049;BME280;74136;51.684;7.862;2024-03-17T04:27:23;101613.28;;;0.68;98.71
84049;BME280;74136;51.684;7.862;2024-03-17T04:29:51;101612.84;;;0.73;98.23
84049;BME280;74136;51.684;7.862;2024-03-17T04:32:18;101613.25;;;0.78;98.25
84049;BME280;74136;51.684;7.862;2024-03-17T04:34:44;101618.81;;;0.86;98.13
84049;BME280;74136;51.684;7.862;2024-03-17T04:37:10;101611.06;;;0.91;98.71
84049;BME280;74136;51.684;7.862;2024-03-17T04:39:40;101608.34;;;0.91;98.51
84049;BME280;74136;51.684;7.862;2024-03-17T04:42:09;101616.47;;;0.91;98.46
84049;BME280;74136;51.684;7.862;2024-03-17T04:44:35;101619.50;;;0.88;98.44
84049;BME280;74136;51.684;7.862;2024-03-17T04:47:03;101614.38;;;0.85;98.63
84049;BME280;74136;51.684;7.862;2024-03-17T04:49:36;101618.09;;;0.84;98.55
84049;BME280;74136;51.684;7.862;2024-03-17T04:52:04;101623.66;;;0.83;98.13
84049;BME280;74136;51.684;7.862;2024-03-17T04:54:31;101625.81;;;0.79;98.38
84049;BME280;74136;51.684;7.862;2024-03-17T04:56:58;101619.53;;;0.79;98.42
84049;BME280;74136;51.684;7.862;2024-03-17T04:59:24;101621.69;;;0.75;98.31
84049;BME280;74136;51.684;7.862;2024-03-17T05:01:51;101615.28;;;0.66;98.29
84049;BME280;74136;51.684;7.862;2024-03-17T05:04:18;101626.44;;;0.63;98.54
84049;BME280;74136;51.684;7.862;2024-03-17T05:06:44;101613.75;;;0.64;98.96
84049;BME280;74136;51.684;7.862;2024-03-17T05:09:18;101608.16;;;0.75;100.00
84049;BME280;74136;51.684;7.862;2024-03-17T05:11:45;101609.69;;;0.78;100.00
84049;BME280;74136;51.684;7.862;2024-03-17T05:14:11;101613.25;;;0.78;100.00
84049;BME280;74136;51.684;7.862;2024-03-17T05:16:38;101611.09;;;0.82;100.00
84049;BME280;74136;51.684;7.862;2024-03-17T05:19:04;101602.53;;;0.86;100.00
84049;BME280;74136;51.684;7.862;2024-03-17T05:21:30;101607.34;;;0.92;100.00
84049;BME280;74136;51.684;7.862;2024-03-17T05:23:57;101602.50;;;0.96;100.00
84049;BME280;74136;51.684;7.862;2024-03-17T05:26:24;101605.91;;;0.98;100.00
84049;BME280;74136;51.684;7.862;2024-03-17T05:28:50;101598.66;;;0.98;100.00
84049;BME280;74136;51.684;7.862;2024-03-17T05:31:17;101602.34;;;0.97;100.00
84049;BME280;74136;51.684;7.862;2024-03-17T05:33:44;101598.66;;;0.98;100.00
84049;BME280;74136;51.684;7.862;2024-03-17T05:36:10;101594.09;;;0.99;100.00
84049;BME280;74136;51.684;7.862;2024-03-17T05:38:37;101578.81;;;0.98;100.00
84049;BME280;74136;51.684;7.862;2024-03-17T05:41:07;101581.38;;;0.99;100.00
84049;BME280;74136;51.684;7.862;2024-03-17T05:43:35;101579.69;;;0.98;100.00
84049;BME280;74136;51.684;7.862;2024-03-17T05:46:03;101584.91;;;1.00;100.00
84049;BME280;74136;51.684;7.862;2024-03-17T05:48:33;101586.94;;;0.98;100.00
84049;BME280;74136;51.684;7.862;2024-03-17T05:51:02;101599.50;;;0.99;100.00
84049;BME280;74136;51.684;7.862;2024-03-17T05:53:28;101597.09;;;0.96;100.00
84049;BME280;74136;51.684;7.862;2024-03-17T05:55:55;101605.66;;;0.91;100.00
84049;BME280;74136;51.684;7.862;2024-03-17T05:58:21;101602.69;;;0.85;99.99
84049;BME280;74136;51.684;7.862;2024-03-17T06:00:48;101599.72;;;0.78;99.77
84049;BME280;74136;51.684;7.862;2024-03-17T06:03:15;101600.47;;;0.70;99.79
84049;BME280;74136;51.684;7.862;2024-03-17T06:05:41;101599.88;;;0.67;99.70
84049;BME280;74136;51.684;7.862;2024-03-17T06:08:07;101600.91;;;0.66;99.69
84049;BME280;74136;51.684;7.862;2024-03-17T06:10:36;101598.22;;;0.66;99.88
84049;BME280;74136;51.684;7.862;2024-03-17T06:13:03;101591.47;;;0.70;100.00
84049;BME280;74136;51.684;7.862;2024-03-17T06:15:30;101581.78;;;0.77;100.00
84049;BME280;74136;51.684;7.862;2024-03-17T06:17:56;101595.28;;;0.87;100.00
84049;BME280;74136;51.684;7.862;2024-03-17T06:20:24;101599.69;;;0.88;100.00
84049;BME280;74136;51.684;7.862;2024-03-17T06:22:56;101595.81;;;0.90;100.00
84049;BME280;74136;51.684;7.862;2024-03-17T06:25:23;101596.09;;;0.97;100.00
84049;BME280;74136;51.684;7.862;2024-03-17T06:27:52;101593.75;;;1.02;100.00
84049;BME280;74136;51.684;7.862;2024-03-17T06:30:18;101590.75;;;1.05;100.00
84049;BME280;74136;51.684;7.862;2024-03-17T06:32:46;101584.91;;;1.09;100.00
84049;BME280;74136;51.684;7.862;2024-03-17T06:35:13;101593.41;;;1.15;99.60
84049;BME280;74136;51.684;7.862;2024-03-17T06:37:42;101594.22;;;1.25;99.56
84049;BME280;74136;51.684;7.862;2024-03-17T06:40:12;101588.56;;;1.36;99.75
84049;BME280;74136;51.684;7.862;2024-03-17T06:42:39;101586.50;;;1.48;99.86
84049;BME280;74136;51.684;7.862;2024-03-17T06:45:06;101601.41;;;1.61;99.01
84049;BME280;74136;51.684;7.862;2024-03-17T06:47:36;101587.44;;;1.74;98.65
84049;BME280;74136;51.684;7.862;2024-03-17T06:50:04;101587.44;;;1.92;98.52
84049;BME280;74136;51.684;7.862;2024-03-17T06:52:30;101585.09;;;2.14;97.41
84049;BME280;74136;51.684;7.862;2024-03-17T06:54:57;101572.84;;;2.36;96.00
84049;BME280;74136;51.684;7.862;2024-03-17T06:57:27;101572.19;;;2.68;93.50
84049;BME280;74136;51.684;7.862;2024-03-17T06:59:53;101574.66;;;2.87;93.62
84049;BME280;74136;51.684;7.862;2024-03-17T07:02:20;101575.28;;;3.07;92.93
84049;BME280;74136;51.684;7.862;2024-03-17T07:04:46;101574.16;;;3.26;89.64
84049;BME280;74136;51.684;7.862;2024-03-17T07:07:14;101569.97;;;3.48;89.58
84049;BME280;74136;51.684;7.862;2024-03-17T07:09:40;101571.19;;;3.70;87.53
84049;BME280;74136;51.684;7.862;2024-03-17T07:12:08;101570.38;;;3.85;86.63
84049;BME280;74136;51.684;7.862;2024-03-17T07:14:35;101571.22;;;4.02;87.37
84049;BME280;74136;51.684;7.862;2024-03-17T07:17:02;101574.28;;;4.15;86.25
84049;BME280;74136;51.684;7.862;2024-03-17T07:19:28;101574.25;;;4.31;84.64
84049;BME280;74136;51.684;7.862;2024-03-17T07:21:54;101575.78;;;4.50;82.65
84049;BME280;74136;51.684;7.862;2024-03-17T07:24:21;101578.81;;;4.71;84.21
84049;BME280;74136;51.684;7.862;2024-03-17T07:26:56;101572.94;;;4.91;82.15
84049;BME280;74136;51.684;7.862;2024-03-17T07:29:25;101572.69;;;5.08;80.90
84049;BME280;74136;51.684;7.862;2024-03-17T07:31:52;101575.50;;;5.31;80.72
84049;BME280;74136;51.684;7.862;2024-03-17T07:34:18;101562.44;;;5.49;79.56
84049;BME280;74136;51.684;7.862;2024-03-17T07:36:45;101556.25;;;5.78;78.46
84049;BME280;74136;51.684;7.862;2024-03-17T07:39:12;101558.06;;;5.94;79.23
84049;BME280;74136;51.684;7.862;2024-03-17T07:41:38;101566.53;;;5.99;77.69
84049;BME280;74136;51.684;7.862;2024-03-17T07:44:05;101556.81;;;6.19;76.50
84049;BME280;74136;51.684;7.862;2024-03-17T07:46:31;101554.03;;;6.42;77.21
84049;BME280;74136;51.684;7.862;2024-03-17T07:48:57;101561.25;;;6.73;75.26
84049;BME280;74136;51.684;7.862;2024-03-17T07:51:23;101548.66;;;7.08;74.73
84049;BME280;74136;51.684;7.862;2024-03-17T07:53:50;101558.38;;;7.40;72.69
84049;BME280;74136;51.684;7.862;2024-03-17T07:56:18;101550.06;;;7.69;72.44
84049;BME280;74136;51.684;7.862;2024-03-17T07:58:45;101553.69;;;7.76;71.27
84049;BME280;74136;51.684;7.862;2024-03-17T08:01:15;101550.91;;;7.91;69.90
84049;BME280;74136;51.684;7.862;2024-03-17T08:03:45;101540.28;;;8.02;68.97
84049;BME280;74136;51.684;7.862;2024-03-17T08:06:12;101550.44;;;8.09;69.31
84049;BME280;74136;51.684;7.862;2024-03-17T08:08:40;101549.72;;;8.21;70.67
84049;BME280;74136;51.684;7.862;2024-03-17T08:11:07;101555.47;;;8.26;68.95
84049;BME280;74136;51.684;7.862;2024-03-17T08:13:33;101551.97;;;8.18;70.91
84049;BME280;74136;51.684;7.862;2024-03-17T08:16:07;101555.22;;;8.00;69.97
84049;BME280;74136;51.684;7.862;2024-03-17T08:18:36;101546.13;;;7.99;70.14
84049;BME280;74136;51.684;7.862;2024-03-17T08:21:03;101546.59;;;8.03;70.72
84049;BME280;74136;51.684;7.862;2024-03-17T08:23:30;101550.16;;;8.25;71.14
84049;BME280;74136;51.684;7.862;2024-03-17T08:26:00;101553.16;;;8.30;70.24
84049;BME280;74136;51.684;7.862;2024-03-17T08:28:27;101552.22;;;8.37;69.82
84049;BME280;74136;51.684;7.862;2024-03-17T08:30:55;101556.22;;;8.42;70.38
84049;BME280;74136;51.684;7.862;2024-03-17T08:33:22;101562.03;;;8.53;69.06
84049;BME280;74136;51.684;7.862;2024-03-17T08:36:08;101558.63;;;8.51;69.27
84049;BME280;74136;51.684;7.862;2024-03-17T08:38:35;101550.25;;;8.59;68.83
84049;BME280;74136;51.684;7.862;2024-03-17T08:41:07;101562.56;;;8.70;68.59
84049;BME280;74136;51.684;7.862;2024-03-17T08:43:34;101561.94;;;8.68;67.65
84049;BME280;74136;51.684;7.862;2024-03-17T08:46:05;101561.09;;;8.74;67.66
84049;BME280;74136;51.684;7.862;2024-03-17T08:48:33;101558.16;;;8.75;68.43
84049;BME280;74136;51.684;7.862;2024-03-17T08:51:01;101562.59;;;8.76;67.57
84049;BME280;74136;51.684;7.862;2024-03-17T08:53:28;101559.94;;;8.83;68.23
84049;BME280;74136;51.684;7.862;2024-03-17T08:55:55;101558.22;;;8.82;67.48
84049;BME280;74136;51.684;7.862;2024-03-17T08:58:22;101563.09;;;8.87;67.85
84049;BME280;74136;51.684;7.862;2024-03-17T09:00:49;101556.91;;;8.78;67.34
84049;BME280;74136;51.684;7.862;2024-03-17T09:03:15;101559.69;;;8.85;66.91
84049;BME280;74136;51.684;7.862;2024-03-17T09:05:43;101556.34;;;8.89;67.86
84049;BME280;74136;51.684;7.862;2024-03-17T09:08:20;101550.41;;;8.86;67.16
84049;BME280;74136;51.684;7.862;2024-03-17T09:10:49;101554.47;;;8.90;67.40
84049;BME280;74136;51.684;7.862;2024-03-17T09:13:20;101552.97;;;8.87;67.77
84049;BME280;74136;51.684;7.862;2024-03-17T09:15:56;101549.38;;;8.87;66.71
84049;BME280;74136;51.684;7.862;2024-03-17T09:18:23;101562.69;;;8.90;67.74
84049;BME280;74136;51.684;7.862;2024-03-17T09:20:57;101560.41;;;8.93;67.81
84049;BME280;74136;51.684;7.862;2024-03-17T09:23:23;101570.25;;;9.16;67.94
84049;BME280;74136;51.684;7.862;2024-03-17T09:25:57;101561.84;;;9.30;67.57
84049;BME280;74136;51.684;7.862;2024-03-17T09:28:23;101566.78;;;9.48;67.08
84049;BME280;74136;51.684;7.862;2024-03-17T09:30:49;101556.72;;;9.68;66.99
84049;BME280;74136;51.684;7.862;2024-03-17T09:33:15;101561.56;;;9.66;65.61
84049;BME280;74136;51.684;7.862;2024-03-17T09:35:42;101564.56;;;9.78;65.68
84049;BME280;74136;51.684;7.862;2024-03-17T09:38:08;101562.72;;;10.11;66.04
84049;BME280;74136;51.684;7.862;2024-03-17T09:40:34;101565.72;;;10.36;66.32
84049;BME280;74136;51.684;7.862;2024-03-17T09:43:00;101552.16;;;10.41;63.72
84049;BME280;74136;51.684;7.862;2024-03-17T09:45:26;101549.19;;;10.63;62.55
84049;BME280;74136;51.684;7.862;2024-03-17T09:47:55;101543.47;;;10.71;62.26
84049;BME280;74136;51.684;7.862;2024-03-17T09:50:21;101539.88;;;10.64;61.65
84049;BME280;74136;51.684;7.862;2024-03-17T09:52:48;101531.16;;;10.73;61.68
84049;BME280;74136;51.684;7.862;2024-03-17T09:55:17;101532.88;;;10.81;62.25
84049;BME280;74136;51.684;7.862;2024-03-17T09:57:43;101524.13;;;10.97;62.47
84049;BME280;74136;51.684;7.862;2024-03-17T10:00:12;101521.38;;;11.04;60.91
84049;BME280;74136;51.684;7.862;2024-03-17T10:02:43;101520.06;;;11.06;61.69
84049;BME280;74136;51.684;7.862;2024-03-17T10:05:24;101511.50;;;11.27;61.48
84049;BME280;74136;51.684;7.862;2024-03-17T10:07:51;101499.97;;;11.44;60.76
84049;BME280;74136;51.684;7.862;2024-03-17T10:10:20;101506.81;;;11.35;60.36
84049;BME280;74136;51.684;7.862;2024-03-17T10:12:51;101501.03;;;11.43;59.98
84049;BME280;74136;51.684;7.862;2024-03-17T10:15:17;101503.75;;;11.49;60.53
84049;BME280;74136;51.684;7.862;2024-03-17T10:17:44;101504.75;;;11.61;59.90
84049;BME280;74136;51.684;7.862;2024-03-17T10:20:20;101504.66;;;11.75;59.52
84049;BME280;74136;51.684;7.862;2024-03-17T10:23:03;101505.63;;;11.93;57.59
84049;BME280;74136;51.684;7.862;2024-03-17T10:25:34;101519.38;;;12.00;58.06
84049;BME280;74136;51.684;7.862;2024-03-17T10:28:01;101519.19;;;11.95;57.56
84049;BME280;74136;51.684;7.862;2024-03-17T10:30:28;101520.59;;;12.04;56.93
84049;BME280;74136;51.684;7.862;2024-03-17T10:32:58;101531.16;;;11.82;58.02
84049;BME280;74136;51.684;7.862;2024-03-17T10:35:32;101526.94;;;11.73;57.56
84049;BME280;74136;51.684;7.862;2024-03-17T10:38:00;101523.25;;;11.54;58.17
84049;BME280;74136;51.684;7.862;2024-03-17T10:40:29;101506.91;;;11.59;59.24
84049;BME280;74136;51.684;7.862;2024-03-17T10:43:00;101513.16;;;11.73;58.02
84049;BME280;74136;51.684;7.862;2024-03-17T10:45:27;101515.28;;;11.71;57.60
84049;BME280;74136;51.684;7.862;2024-03-17T10:47:59;101506.50;;;11.56;59.13
84049;BME280;74136;51.684;7.862;2024-03-17T10:50:30;101506.97;;;11.84;58.70
84049;BME280;74136;51.684;7.862;2024-03-17T10:53:00;101513.50;;;11.90;57.74
84049;BME280;74136;51.684;7.862;2024-03-17T10:55:32;101511.59;;;11.90;58.47
84049;BME280;74136;51.684;7.862;2024-03-17T10:57:59;101511.75;;;11.95;57.64
84049;BME280;74136;51.684;7.862;2024-03-17T11:00:30;101513.09;;;11.86;57.73
84049;BME280;74136;51.684;7.862;2024-03-17T11:02:57;101512.59;;;12.02;57.38
84049;BME280;74136;51.684;7.862;2024-03-17T11:05:26;101513.78;;;12.13;57.46
84049;BME280;74136;51.684;7.862;2024-03-17T11:07:56;101504.78;;;12.18;57.23
84049;BME280;74136;51.684;7.862;2024-03-17T11:10:29;101513.53;;;12.15;56.76
84049;BME280;74136;51.684;7.862;2024-03-17T11:12:58;101508.97;;;12.27;56.75
84049;BME280;74136;51.684;7.862;2024-03-17T11:17:52;101502.97;;;12.36;56.63
84049;BME280;74136;51.684;7.862;2024-03-17T11:20:28;101508.31;;;12.50;56.71
84049;BME280;74136;51.684;7.862;2024-03-17T11:22:56;101509.56;;;12.54;57.03
84049;BME280;74136;51.684;7.862;2024-03-17T11:27:53;101505.09;;;12.34;55.96
84049;BME280;74136;51.684;7.862;2024-03-17T11:30:50;101503.13;;;12.60;57.07
84049;BME280;74136;51.684;7.862;2024-03-17T11:39:00;101496.75;;;13.02;54.17
84049;BME280;74136;51.684;7.862;2024-03-17T11:41:40;101494.81;;;13.03;54.31
84049;BME280;74136;51.684;7.862;2024-03-17T11:49:27;101491.34;;;13.07;53.88
84049;BME280;74136;51.684;7.862;2024-03-17T11:51:55;101500.19;;;13.34;55.14
84049;BME280;74136;51.684;7.862;2024-03-17T11:54:29;101499.56;;;13.32;51.65
84049;BME280;74136;51.684;7.862;2024-03-17T11:57:12;101492.19;;;13.26;52.52
84049;BME280;74136;51.684;7.862;2024-03-17T11:59:39;101492.13;;;13.33;51.89
84049;BME280;74136;51.684;7.862;2024-03-17T12:04:39;101492.13;;;13.33;53.82
84049;BME280;74136;51.684;7.862;2024-03-17T12:07:12;101488.84;;;13.54;52.77
84049;BME280;74136;51.684;7.862;2024-03-17T12:09:41;101483.59;;;13.64;52.67
84049;BME280;74136;51.684;7.862;2024-03-17T12:12:19;101492.00;;;13.58;52.33
84049;BME280;74136;51.684;7.862;2024-03-17T12:14:47;101473.16;;;13.66;51.68
84049;BME280;74136;51.684;7.862;2024-03-17T12:17:24;101475.72;;;13.79;50.85
84049;BME280;74136;51.684;7.862;2024-03-17T12:19:51;101480.09;;;13.99;50.20
84049;BME280;74136;51.684;7.862;2024-03-17T12:22:22;101479.16;;;14.16;50.97
84049;BME280;74136;51.684;7.862;2024-03-17T12:24:53;101461.59;;;14.23;51.24
84049;BME280;74136;51.684;7.862;2024-03-17T12:27:24;101470.00;;;14.16;51.68
84049;BME280;74136;51.684;7.862;2024-03-17T12:29:51;101465.97;;;14.42;51.50
84049;BME280;74136;51.684;7.862;2024-03-17T12:32:20;101452.13;;;14.42;50.06
84049;BME280;74136;51.684;7.862;2024-03-17T12:34:50;101444.03;;;14.40;50.06
84049;BME280;74136;51.684;7.862;2024-03-17T12:37:21;101454.72;;;14.13;52.08
84049;BME280;74136;51.684;7.862;2024-03-17T12:39:48;101443.88;;;14.00;50.77
84049;BME280;74136;51.684;7.862;2024-03-17T12:42:16;101454.56;;;13.97;50.51
84049;BME280;74136;51.684;7.862;2024-03-17T12:44:53;101446.06;;;14.21;50.87
84049;BME280;74136;51.684;7.862;2024-03-17T12:47:21;101447.59;;;14.06;50.76
84049;BME280;74136;51.684;7.862;2024-03-17T12:49:50;101434.50;;;14.13;51.48
84049;BME280;74136;51.684;7.862;2024-03-17T12:55:06;101425.81;;;13.98;51.43
84049;BME280;74136;51.684;7.862;2024-03-17T12:58:04;101420.38;;;14.03;51.29
84049;BME280;74136;51.684;7.862;2024-03-17T13:01:00;101421.97;;;14.10;51.58
84049;BME280;74136;51.684;7.862;2024-03-17T13:03:37;101411.66;;;14.41;53.23
84049;BME280;74136;51.684;7.862;2024-03-17T13:06:08;101410.06;;;14.68;52.36
84049;BME280;74136;51.684;7.862;2024-03-17T13:08:36;101402.09;;;14.72;51.64
84049;BME280;74136;51.684;7.862;2024-03-17T13:11:02;101400.09;;;14.55;50.92
84049;BME280;74136;51.684;7.862;2024-03-17T13:13:30;101400.69;;;14.34;51.20
84049;BME280;74136;51.684;7.862;2024-03-17T13:15:56;101397.09;;;14.45;50.40
84049;BME280;74136;51.684;7.862;2024-03-17T13:18:22;101386.72;;;14.41;50.69
84049;BME280;74136;51.684;7.862;2024-03-17T13:20:48;101391.53;;;14.69;51.95
84049;BME280;74136;51.684;7.862;2024-03-17T13:23:20;101385.28;;;14.50;50.51
84049;BME280;74136;51.684;7.862;2024-03-17T13:25:53;101379.00;;;14.66;51.07
84049;BME280;74136;51.684;7.862;2024-03-17T13:28:19;101382.84;;;14.65;51.10